createdAt,value
2018-12-13T00:00:17.643Z,67.08
2018-12-13T00:03:08.572Z,66.45
2018-12-13T00:05:59.262Z,67.37
2018-12-13T00:08:47.500Z,65.55
2018-12-13T00:11:36.413Z,65.70
2018-12-13T00:14:25.885Z,67.82
2018-12-13T00:17:14.200Z,67.35
2018-12-13T00:20:02.462Z,69.67
2018-12-13T00:22:50.440Z,70.83
2018-12-13T00:25:38.479Z,71.87
2018-12-13T00:28:26.469Z,71.65
2018-12-13T00:31:15.765Z,72.22
2018-12-13T00:34:03.958Z,72.08
2018-12-13T00:36:52.596Z,76.33
2018-12-13T00:39:40.536Z,76.37
2018-12-13T00:42:28.989Z,77.78
2018-12-13T00:45:17.573Z,75.87
2018-12-13T00:48:05.542Z,78.25
2018-12-13T00:50:54.092Z,77.45
2018-12-13T00:53:42.727Z,78.65
2018-12-13T00:56:31.491Z,78.35
2018-12-13T00:59:19.220Z,79.03
2018-12-13T01:02:06.747Z,78.80
2018-12-13T01:04:55.048Z,79.92
2018-12-13T01:07:43.100Z,77.67
2018-12-13T01:10:32.177Z,86.00
2018-12-13T01:13:20.087Z,80.60
2018-12-13T01:16:10.613Z,82.80
2018-12-13T01:18:59.210Z,81.42
2018-12-13T01:21:46.912Z,81.32
2018-12-13T01:24:35.106Z,81.97
2018-12-13T01:27:23.044Z,82.50
2018-12-13T01:30:11.018Z,81.80
2018-12-13T01:32:59.126Z,79.72
2018-12-13T01:35:47.130Z,81.00
2018-12-13T01:38:34.889Z,82.35
2018-12-13T01:41:22.552Z,81.53
2018-12-13T01:44:14.879Z,82.27
2018-12-13T01:47:03.155Z,85.17
2018-12-13T01:49:51.822Z,83.87
2018-12-13T01:52:40.303Z,83.00
2018-12-13T01:55:28.726Z,81.97
2018-12-13T01:58:17.895Z,84.65
2018-12-13T02:01:06.762Z,83.45
2018-12-13T02:03:55.371Z,83.40
2018-12-13T02:06:44.690Z,85.07
2018-12-13T02:09:33.275Z,84.05
2018-12-13T02:12:23.173Z,83.92
2018-12-13T02:15:11.554Z,82.08
2018-12-13T02:18:00.183Z,89.45
2018-12-13T02:20:47.262Z,86.95
2018-12-13T02:23:35.857Z,87.17
2018-12-13T02:26:23.609Z,84.50
2018-12-13T02:29:11.750Z,86.05
2018-12-13T02:31:59.101Z,86.20
2018-12-13T02:34:48.495Z,85.85
2018-12-13T02:37:36.528Z,88.15
2018-12-13T02:40:24.370Z,89.87
2018-12-13T02:43:12.413Z,91.57
2018-12-13T02:46:02.131Z,90.30
2018-12-13T02:48:50.597Z,91.42
2018-12-13T02:51:38.654Z,92.05
2018-12-13T02:54:27.943Z,94.52
2018-12-13T02:57:16.100Z,91.80
2018-12-13T03:00:05.249Z,90.05
2018-12-13T03:02:54.986Z,94.17
2018-12-13T03:05:43.592Z,92.27
2018-12-13T03:08:31.420Z,95.55
2018-12-13T03:11:23.506Z,93.47
2018-12-13T03:14:12.394Z,90.62
2018-12-13T03:17:00.906Z,96.55
2018-12-13T03:19:49.795Z,93.22
2018-12-13T03:22:37.843Z,93.52
2018-12-13T03:25:25.879Z,96.28
2018-12-13T03:28:13.614Z,93.07
2018-12-13T03:31:02.236Z,93.22
2018-12-13T03:33:53.313Z,98.33
2018-12-13T03:36:41.812Z,95.83
2018-12-13T03:39:29.881Z,98.10
2018-12-13T03:42:18.532Z,97.55
2018-12-13T03:45:06.572Z,97.67
2018-12-13T03:47:55.785Z,98.92
2018-12-13T03:50:44.426Z,98.33
2018-12-13T03:53:32.400Z,100.12
2018-12-13T03:56:23.730Z,100.47
2018-12-13T03:59:12.416Z,102.97
2018-12-13T04:02:01.831Z,96.95
2018-12-13T04:04:49.870Z,94.07
2018-12-13T04:07:37.841Z,94.70
2018-12-13T04:10:26.888Z,95.47
2018-12-13T04:13:14.590Z,112.68
2018-12-13T04:16:03.126Z,97.40
2018-12-13T04:18:51.480Z,100.50
2018-12-13T04:21:39.845Z,100.10
2018-12-13T04:24:27.659Z,98.55
2018-12-13T04:27:15.604Z,97.12
2018-12-13T04:30:03.259Z,94.03
2018-12-13T04:32:50.844Z,95.83
2018-12-13T04:35:39.034Z,96.85
2018-12-13T04:38:26.558Z,94.42
2018-12-13T04:41:15.143Z,93.33
2018-12-13T04:44:03.497Z,92.00
2018-12-13T04:46:51.398Z,92.02
2018-12-13T04:49:41.411Z,92.75
2018-12-13T04:52:30.226Z,93.15
2018-12-13T05:17:55.666Z,89.67
2018-12-13T05:20:44.981Z,91.72
2018-12-13T05:23:37.214Z,90.87
2018-12-13T05:26:28.147Z,89.97
2018-12-13T05:29:25.228Z,91.95
2018-12-13T05:32:17.499Z,93.33
2018-12-13T05:35:08.171Z,89.25
2018-12-13T05:38:01.513Z,90.85
2018-12-13T05:40:56.375Z,93.25
2018-12-13T05:44:01.849Z,94.03
2018-12-13T05:47:08.331Z,93.00
2018-12-13T05:50:06.512Z,89.65
2018-12-13T05:53:07.764Z,91.42
2018-12-13T05:56:03.914Z,89.03
2018-12-13T06:02:19.443Z,91.30
2018-12-13T06:05:21.562Z,89.55
2018-12-13T06:08:20.598Z,86.45
2018-12-13T06:11:23.423Z,87.20
2018-12-13T06:14:16.619Z,84.13
2018-12-13T06:17:08.171Z,85.57
2018-12-13T06:19:58.392Z,82.95
2018-12-13T06:22:50.087Z,81.78
2018-12-13T06:25:47.827Z,82.92
2018-12-13T06:28:44.444Z,81.72
2018-12-13T06:31:37.020Z,84.17
2018-12-13T06:34:26.580Z,86.22
2018-12-13T06:37:15.583Z,82.70
2018-12-13T06:40:05.025Z,83.03
2018-12-13T06:42:54.072Z,90.15
2018-12-13T06:45:43.676Z,92.42
2018-12-13T06:48:32.391Z,87.67
2018-12-13T06:51:20.981Z,89.58
2018-12-13T06:54:10.576Z,86.87
2018-12-13T06:57:01.875Z,87.30
2018-12-13T06:59:52.350Z,89.15
2018-12-13T07:02:42.634Z,87.37
2018-12-13T07:05:34.996Z,87.02
2018-12-13T07:08:36.131Z,85.30
2018-12-13T07:11:31.400Z,84.77
2018-12-13T07:14:23.541Z,83.00
2018-12-13T07:17:13.145Z,87.20
2018-12-13T07:20:03.253Z,84.55
2018-12-13T07:22:52.724Z,81.87
2018-12-13T07:25:42.563Z,85.12
2018-12-13T07:28:37.161Z,80.22
2018-12-13T07:31:27.242Z,81.72
2018-12-13T07:34:29.532Z,82.90
2018-12-13T07:37:24.030Z,80.40
2018-12-13T07:40:16.385Z,80.77
2018-12-13T07:43:16.068Z,77.87
2018-12-13T07:46:23.838Z,79.47
2018-12-13T07:49:22.282Z,77.00
2018-12-13T07:52:18.542Z,74.35
2018-12-13T07:55:09.568Z,71.72
2018-12-13T07:57:59.030Z,71.67
2018-12-13T08:00:48.790Z,71.12
2018-12-13T08:03:37.385Z,69.07
2018-12-13T08:06:28.688Z,71.90
2018-12-13T08:09:21.204Z,68.00
2018-12-13T08:12:32.478Z,69.90
2018-12-13T08:15:22.799Z,73.07
2018-12-13T08:18:13.031Z,70.32
2018-12-13T08:21:04.898Z,65.62
2018-12-13T08:24:06.123Z,63.85
2018-12-13T08:26:58.944Z,65.65
2018-12-13T08:29:53.003Z,64.65
2018-12-13T08:32:45.059Z,66.90
2018-12-13T08:35:35.981Z,67.03
2018-12-13T08:38:28.887Z,64.90
2018-12-13T08:41:20.657Z,61.58
2018-12-13T08:44:12.447Z,60.95
2018-12-13T08:47:03.777Z,58.02
2018-12-13T08:49:57.913Z,56.88
2018-12-13T08:52:54.965Z,57.10
2018-12-13T08:55:47.988Z,57.08
2018-12-13T08:58:37.727Z,57.30
2018-12-13T09:01:26.001Z,54.80
2018-12-13T09:04:16.089Z,55.33
2018-12-13T09:07:05.199Z,55.43
2018-12-13T09:09:53.240Z,53.70
2018-12-13T09:12:43.349Z,54.35
2018-12-13T09:15:32.082Z,53.30
2018-12-13T09:18:22.267Z,53.35
2018-12-13T09:21:16.488Z,53.33
2018-12-13T09:24:08.247Z,52.40
2018-12-13T09:26:59.621Z,54.18
2018-12-13T09:29:51.856Z,55.78
2018-12-13T09:32:43.529Z,55.20
2018-12-13T09:35:54.632Z,56.37
2018-12-13T09:38:47.978Z,56.33
2018-12-13T09:41:41.077Z,56.13
2018-12-13T09:44:45.622Z,55.30
2018-12-13T09:47:39.495Z,54.93
2018-12-13T09:50:28.374Z,53.92
2018-12-13T09:53:20.442Z,54.58
2018-12-13T09:56:12.370Z,54.83
2018-12-13T09:59:04.524Z,54.80
2018-12-13T10:01:55.599Z,52.23
2018-12-13T10:04:46.238Z,52.75
2018-12-13T10:07:38.639Z,48.98
2018-12-13T10:10:29.191Z,52.35
2018-12-13T10:13:20.112Z,53.28
2018-12-13T10:19:30.901Z,50.80
2018-12-13T10:22:31.295Z,53.33
2018-12-13T10:25:24.742Z,53.08
2018-12-13T10:28:17.231Z,51.88
2018-12-13T10:31:08.531Z,52.23
2018-12-13T10:34:09.580Z,50.38
2018-12-13T10:37:05.416Z,51.08
2018-12-13T10:40:00.221Z,52.30
2018-12-13T10:43:18.998Z,51.33
2018-12-13T10:46:14.826Z,51.25
2018-12-13T10:49:14.288Z,53.50
2018-12-13T10:52:08.896Z,51.92
2018-12-13T10:55:05.621Z,53.63
2018-12-13T10:58:01.191Z,52.00
2018-12-13T11:00:59.816Z,53.30
2018-12-13T11:04:03.644Z,52.15
2018-12-13T11:07:02.412Z,51.37
2018-12-13T11:10:04.639Z,51.85
2018-12-13T11:13:02.470Z,50.98
2018-12-13T11:25:41.649Z,51.18
2018-12-13T11:32:02.363Z,51.45
2018-12-13T11:35:00.707Z,51.60
2018-12-13T11:37:59.597Z,50.92
2018-12-13T11:40:56.467Z,51.58
2018-12-13T11:43:55.785Z,50.73
2018-12-13T11:46:57.950Z,49.27
2018-12-13T11:49:54.735Z,52.85
2018-12-13T11:52:48.045Z,55.08
2018-12-13T11:55:41.498Z,55.00
2018-12-13T11:58:30.184Z,58.48
2018-12-13T12:01:18.152Z,64.72
2018-12-13T12:04:07.696Z,68.60
2018-12-13T12:06:56.147Z,66.90
2018-12-13T12:09:45.636Z,64.40
2018-12-13T12:12:37.528Z,65.60
2018-12-13T12:15:26.763Z,65.65
2018-12-13T12:18:15.562Z,63.42
2018-12-13T12:21:05.881Z,61.92
2018-12-13T12:23:55.394Z,64.95
2018-12-13T12:26:44.446Z,63.38
2018-12-13T12:29:33.902Z,63.75
2018-12-13T12:32:23.621Z,64.80
2018-12-13T12:35:13.710Z,67.80
2018-12-13T12:38:03.335Z,65.97
2018-12-13T12:40:52.798Z,67.87
2018-12-13T12:43:41.401Z,70.00
2018-12-13T12:46:30.710Z,74.17
2018-12-13T12:49:19.574Z,76.60
2018-12-13T12:52:09.237Z,82.30
2018-12-13T12:54:57.359Z,78.22
2018-12-13T12:57:47.961Z,76.95
2018-12-13T13:00:37.979Z,77.47
2018-12-13T13:03:25.949Z,76.37
2018-12-13T13:06:13.720Z,75.67
2018-12-13T13:09:01.929Z,73.50
2018-12-13T13:11:52.770Z,89.15
2018-12-13T13:14:41.768Z,94.10
2018-12-13T13:17:30.174Z,97.33
2018-12-13T13:20:21.334Z,95.85
2018-12-13T13:23:12.659Z,95.45
2018-12-13T13:26:01.109Z,96.50
2018-12-13T13:28:50.694Z,98.05
2018-12-13T13:31:38.660Z,97.97
2018-12-13T13:34:26.568Z,96.65
2018-12-13T13:37:14.263Z,91.12
2018-12-13T13:40:02.555Z,96.85
2018-12-13T13:42:51.498Z,94.50
2018-12-13T13:45:39.214Z,93.85
2018-12-13T13:48:26.914Z,93.78
2018-12-13T13:51:15.457Z,97.33
2018-12-13T13:54:03.773Z,96.28
2018-12-13T13:56:53.489Z,93.30
2018-12-13T13:59:41.729Z,97.08
2018-12-13T14:02:29.791Z,97.37
2018-12-13T14:05:17.849Z,99.92
2018-12-13T14:08:06.221Z,102.85
2018-12-13T14:10:54.205Z,102.90
2018-12-13T14:13:42.651Z,103.53
2018-12-13T14:16:30.330Z,105.10
2018-12-13T14:19:18.493Z,99.85
2018-12-13T14:22:06.393Z,97.70
2018-12-13T14:24:55.630Z,95.97
2018-12-13T14:27:43.762Z,97.37
2018-12-13T14:30:32.057Z,96.55
2018-12-13T14:33:19.815Z,103.97
2018-12-13T14:36:07.642Z,104.23
2018-12-13T14:38:55.888Z,104.38
2018-12-13T14:41:46.184Z,104.83
2018-12-13T14:44:52.523Z,106.00
2018-12-13T14:47:41.383Z,106.12
2018-12-13T14:50:31.218Z,105.72
2018-12-13T14:53:19.660Z,107.80
2018-12-13T14:56:08.721Z,106.27
2018-12-13T14:58:57.912Z,109.78
2018-12-13T15:01:46.363Z,109.32
2018-12-13T15:04:33.991Z,109.72
2018-12-13T15:07:21.981Z,112.80
2018-12-13T15:10:10.513Z,110.20
2018-12-13T15:12:58.694Z,109.20
2018-12-13T15:15:47.197Z,107.90
2018-12-13T15:18:35.125Z,108.72
2018-12-13T15:21:23.233Z,109.55
2018-12-13T15:24:12.069Z,106.95
2018-12-13T15:27:00.145Z,106.92
2018-12-13T15:29:47.856Z,105.32
2018-12-13T15:32:35.938Z,108.72
2018-12-13T15:35:23.882Z,106.27
2018-12-13T15:38:12.410Z,101.07
2018-12-13T15:41:00.745Z,98.52
2018-12-13T15:43:48.872Z,99.25
2018-12-13T15:46:39.264Z,96.40
2018-12-13T15:49:28.218Z,99.90
2018-12-13T15:52:16.456Z,96.82
2018-12-13T15:55:04.504Z,98.40
2018-12-13T15:57:52.247Z,101.60
2018-12-13T16:00:40.459Z,100.92
2018-12-13T16:03:28.616Z,103.40
2018-12-13T16:06:17.811Z,104.25
2018-12-13T16:09:08.160Z,106.15
2018-12-13T16:11:57.016Z,108.30
2018-12-13T16:14:45.456Z,103.38
2018-12-13T16:17:34.626Z,102.95
2018-12-13T16:20:23.300Z,107.40
2018-12-13T16:23:13.149Z,104.80
2018-12-13T16:26:02.668Z,105.70
2018-12-13T16:28:51.765Z,104.67
2018-12-13T16:31:40.810Z,103.55
2018-12-13T16:34:29.403Z,105.55
2018-12-13T16:37:20.516Z,104.25
2018-12-13T16:40:10.465Z,102.02
2018-12-13T16:42:58.826Z,104.38
2018-12-13T16:45:46.663Z,104.38
2018-12-13T16:48:34.943Z,103.60
2018-12-13T16:51:23.843Z,103.53
2018-12-13T16:54:12.299Z,104.07
2018-12-13T16:57:01.184Z,104.53
2018-12-13T16:59:49.382Z,103.60
2018-12-13T17:02:39.971Z,99.35
2018-12-13T17:05:28.160Z,97.97
2018-12-13T17:08:17.782Z,98.37
2018-12-13T17:11:05.990Z,96.30
2018-12-13T17:13:53.868Z,94.90
2018-12-13T17:16:41.953Z,102.32
2018-12-13T17:19:35.795Z,101.85
2018-12-13T17:22:23.828Z,100.15
2018-12-13T17:25:12.215Z,100.78
2018-12-13T17:28:00.595Z,102.62
2018-12-13T17:30:49.032Z,105.30
2018-12-13T17:33:39.486Z,101.45
2018-12-13T17:36:27.255Z,104.95
2018-12-13T17:39:14.870Z,103.70
2018-12-13T17:42:04.250Z,105.47
2018-12-13T17:44:52.591Z,101.67
2018-12-13T17:47:41.240Z,102.78
2018-12-13T17:50:28.979Z,103.58
2018-12-13T17:53:19.067Z,105.03
2018-12-13T17:56:07.531Z,99.22
2018-12-13T17:58:55.932Z,101.47
2018-12-13T18:01:43.747Z,98.33
2018-12-13T18:04:31.939Z,100.20
2018-12-13T18:07:20.072Z,97.85
2018-12-13T18:10:08.598Z,97.78
2018-12-13T18:12:57.153Z,96.72
2018-12-13T18:15:44.919Z,95.80
2018-12-13T18:18:32.794Z,96.65
2018-12-13T18:21:22.056Z,97.05
2018-12-13T18:24:10.994Z,93.00
2018-12-13T18:26:59.570Z,87.67
2018-12-13T18:29:47.545Z,86.28
2018-12-13T18:32:36.976Z,91.45
2018-12-13T18:35:25.235Z,91.30
2018-12-13T18:38:13.977Z,92.80
2018-12-13T18:41:01.872Z,92.82
2018-12-13T18:43:50.847Z,90.20
2018-12-13T18:46:39.542Z,90.72
2018-12-13T18:49:27.696Z,91.92
2018-12-13T18:52:18.691Z,91.30
2018-12-13T18:55:07.272Z,92.70
2018-12-13T18:57:55.305Z,89.62
2018-12-13T19:00:42.897Z,92.25
2018-12-13T19:03:31.077Z,95.22
2018-12-13T19:06:19.262Z,96.20
2018-12-13T19:09:08.318Z,101.45
2018-12-13T19:11:58.739Z,102.62
2018-12-13T19:14:46.572Z,102.78
2018-12-13T19:17:34.799Z,100.42
2018-12-13T19:20:22.360Z,103.58
2018-12-13T19:23:11.047Z,102.38
2018-12-13T19:26:00.621Z,100.95
2018-12-13T19:28:49.467Z,107.10
2018-12-13T19:31:38.285Z,104.07
2018-12-13T19:34:27.539Z,105.70
2018-12-13T19:37:15.532Z,104.35
2018-12-13T19:40:04.130Z,102.00
2018-12-13T19:42:52.255Z,102.02
2018-12-13T19:45:42.177Z,99.37
2018-12-13T19:48:30.517Z,96.37
2018-12-13T19:51:18.530Z,98.15
2018-12-13T19:54:06.716Z,98.80
2018-12-13T19:56:55.148Z,102.47
2018-12-13T19:59:43.265Z,103.62
2018-12-13T20:02:33.511Z,99.80
2018-12-13T20:05:22.459Z,95.00
2018-12-13T20:08:11.082Z,99.28
2018-12-13T20:10:58.969Z,100.65
2018-12-13T20:13:46.804Z,92.82
2018-12-13T20:16:34.943Z,95.00
2018-12-13T20:19:23.517Z,95.40
2018-12-13T20:22:11.658Z,91.70
2018-12-13T20:25:02.259Z,95.07
2018-12-13T20:27:50.699Z,91.53
2018-12-13T20:30:38.697Z,89.60
2018-12-13T20:33:26.765Z,88.47
2018-12-13T20:36:15.576Z,87.97
2018-12-13T20:39:03.203Z,88.78
2018-12-13T20:41:51.527Z,90.47
2018-12-13T20:44:39.068Z,84.15
2018-12-13T20:47:28.169Z,83.60
2018-12-13T20:50:16.549Z,93.70
2018-12-13T20:53:04.377Z,89.30
2018-12-13T20:55:52.356Z,91.72
2018-12-13T20:58:40.299Z,91.55
2018-12-13T21:01:28.103Z,90.10
2018-12-13T21:04:16.048Z,93.65
2018-12-13T21:07:07.793Z,90.70
2018-12-13T21:09:56.190Z,85.97
2018-12-13T21:12:44.791Z,84.35
2018-12-13T21:15:33.022Z,93.10
2018-12-13T21:18:21.713Z,96.57
2018-12-13T21:21:09.565Z,97.72
2018-12-13T21:23:57.798Z,99.95
2018-12-13T21:26:47.619Z,103.47
2018-12-13T21:29:35.733Z,105.52
2018-12-13T21:32:23.898Z,104.75
2018-12-13T21:35:12.766Z,106.10
2018-12-13T21:38:00.572Z,108.90
2018-12-13T21:40:48.668Z,106.70
2018-12-13T21:43:36.472Z,105.85
2018-12-13T21:46:25.436Z,104.53
2018-12-13T21:49:13.500Z,101.30
2018-12-13T21:52:01.701Z,99.72
2018-12-13T21:54:50.044Z,95.57
2018-12-13T21:57:38.107Z,100.35
2018-12-13T22:00:25.893Z,98.52
2018-12-13T22:03:13.275Z,100.92
2018-12-13T22:06:01.698Z,101.45
2018-12-13T22:08:49.550Z,102.10
2018-12-13T22:11:37.421Z,100.42
2018-12-13T22:14:25.236Z,98.15
2018-12-13T22:17:12.880Z,101.65
2018-12-13T22:20:00.757Z,99.58
2018-12-13T22:22:48.942Z,96.97
2018-12-13T22:25:36.656Z,94.50
2018-12-13T22:28:25.647Z,92.37
2018-12-13T22:31:13.749Z,97.80
2018-12-13T22:34:01.443Z,97.02
2018-12-13T22:36:49.362Z,100.10
2018-12-13T22:39:37.695Z,98.33
2018-12-13T22:42:26.237Z,98.20
2018-12-13T22:45:14.104Z,101.47
2018-12-13T22:48:02.592Z,101.90
2018-12-13T22:50:50.892Z,100.75
2018-12-13T22:53:38.778Z,99.85
2018-12-13T22:56:26.694Z,102.42
2018-12-13T22:59:15.942Z,102.00
2018-12-13T23:02:04.740Z,97.02
2018-12-13T23:04:54.458Z,100.80
2018-12-13T23:07:43.440Z,102.07
2018-12-13T23:10:32.708Z,99.83
2018-12-13T23:13:20.499Z,102.80
2018-12-13T23:16:09.199Z,102.75
2018-12-13T23:18:57.398Z,103.50
2018-12-13T23:21:45.632Z,103.32
2018-12-13T23:24:33.729Z,103.58
2018-12-13T23:27:22.619Z,102.38
2018-12-13T23:30:11.143Z,107.45
2018-12-13T23:32:59.389Z,106.00
2018-12-13T23:35:48.771Z,108.63
2018-12-13T23:38:36.443Z,108.92
2018-12-13T23:41:24.914Z,103.95
2018-12-13T23:44:12.666Z,105.32
2018-12-13T23:47:00.831Z,103.42
2018-12-13T23:49:48.505Z,107.92
2018-12-13T23:52:36.530Z,103.97
2018-12-13T23:55:24.335Z,108.03
2018-12-13T23:58:11.955Z,107.27
